Desert Ranger — SVCO2 — position and weather

sailwx.info

Track history (hours):
 
Tides and Currents Weather Stations Pressure Air Temp Water Temp Dewpoint Dewpoint Depression Visibility Wind Speed Wind Dir Waves Ship Positions

Desert Ranger

Last reported at 2018-Jun-21 08:56 UTC. Time now 2018-Jun-22 11:29 UTC.
Position N 43°28' E 014°24'.

Length 200 m; draft 7.5 m.

Type: Cargo ship. MMSI: 241489000.

Date/timePositionNaut miles runAvg speedWind from/ knotsBaromVisibWave heightAir tempDewpointWater temp
2018-Jun-21 08:56N 43°28' E 014°24'714.6
2018-Jun-21 08:27N 43°32' E 014°17'814.8
2018-Jun-21 07:55N 43°38' E 014°09'614.8
2018-Jun-21 07:30N 43°42' E 014°03'914.4
2018-Jun-21 06:52N 43°50' E 013°56'514.6
2018-Jun-21 06:30N 43°53' E 013°51'3314.7
2018-Jun-21 04:17N 44°11' E 013°13'414.5
2018-Jun-21 04:00N 44°15' E 013°11'613.2
2018-Jun-21 03:30N 44°20' E 013°05'714.2
2018-Jun-21 03:00N 44°22' E 012°55'714.2
2018-Jun-21 02:30N 44°25' E 012°46'714.2
2018-Jun-21 02:00N 44°27' E 012°37'713.9
2018-Jun-21 01:30N 44°29' E 012°28'9 1.4
2018-Jun-20 19:14N 44°29' E 012°16'0 0.0
2018-Jun-20 18:59N 44°29' E 012°16'  
2018-Jun-18 12:20N 44°29' E 012°16'0 0.0
2018-Jun-17 07:26N 44°29' E 012°16'  
2018-Jun-11 17:32N 37°32' E 016°32'214.2
2018-Jun-11 17:25N 37°30' E 016°31'8714.1
2018-Jun-11 11:16N 36°28' E 015°15'413.6
2018-Jun-11 11:00N 36°26' E 015°11'714.5
2018-Jun-11 10:29N 36°26' E 015°02'714.6
2018-Jun-11 10:00N 36°26' E 014°53'714.7
2018-Jun-11 09:30N 36°26' E 014°44'714.4
2018-Jun-11 09:00N 36°26' E 014°35'  
Track history (hours):
 
Tides and Currents Weather Stations Pressure Air Temp Water Temp Dewpoint Dewpoint Depression Visibility Wind Speed Wind Dir Waves Ship Positions

Desert Ranger

Last reported at 2018-Jun-21 08:56 UTC. Time now 2018-Jun-22 11:29 UTC.
Position N 43°28' E 014°24'.

Length 200 m; draft 7.5 m.

Type: Cargo ship. MMSI: 241489000.

Date/timePositionNaut miles runAvg speedWind from/ knotsBaromVisibWave heightAir tempDewpointWater temp
2018-Jun-21 08:56N 43°28' E 014°24'714.6
2018-Jun-21 08:27N 43°32' E 014°17'814.8
2018-Jun-21 07:55N 43°38' E 014°09'614.8
2018-Jun-21 07:30N 43°42' E 014°03'914.4
2018-Jun-21 06:52N 43°50' E 013°56'514.6
2018-Jun-21 06:30N 43°53' E 013°51'3314.7
2018-Jun-21 04:17N 44°11' E 013°13'414.5
2018-Jun-21 04:00N 44°15' E 013°11'613.2
2018-Jun-21 03:30N 44°20' E 013°05'714.2
2018-Jun-21 03:00N 44°22' E 012°55'714.2
2018-Jun-21 02:30N 44°25' E 012°46'714.2
2018-Jun-21 02:00N 44°27' E 012°37'713.9
2018-Jun-21 01:30N 44°29' E 012°28'9 1.4
2018-Jun-20 19:14N 44°29' E 012°16'0 0.0
2018-Jun-20 18:59N 44°29' E 012°16'  
2018-Jun-18 12:20N 44°29' E 012°16'0 0.0
2018-Jun-17 07:26N 44°29' E 012°16'  
2018-Jun-11 17:32N 37°32' E 016°32'214.2
2018-Jun-11 17:25N 37°30' E 016°31'8714.1
2018-Jun-11 11:16N 36°28' E 015°15'413.6
2018-Jun-11 11:00N 36°26' E 015°11'714.5
2018-Jun-11 10:29N 36°26' E 015°02'714.6
2018-Jun-11 10:00N 36°26' E 014°53'714.7
2018-Jun-11 09:30N 36°26' E 014°44'714.4
2018-Jun-11 09:00N 36°26' E 014°35'  

Dump ship's entire track history